Time;durP1;ratioP1;P1;durP2;ratioP2;P2;SDS_P1;SDS_P2;PMS_P1;PMS_P2;Temp;Humidity;BMP_temperature;BMP_pressure;BME280_temperature;BME280_humidity;BME280_pressure;Samples;Min_cycle;Max_cycle;Signal;HPM_P1;HPM_P2
2021/11/13 00:02:17;;;;;;;4.30;3.27;;;;;;;3.53;80.62;101643.44;5034399;28;20033;-65
2021/11/13 00:04:43;;;;;;;4.10;2.80;;;;;;;3.57;80.57;101651.97;5034489;28;20059;-69
2021/11/13 00:07:08;;;;;;;6.03;2.80;;;;;;;3.63;80.29;101655.06;5034182;28;20084;-66
2021/11/13 00:09:33;;;;;;;4.30;3.20;;;;;;;3.70;80.74;101666.06;5034215;28;20033;-66
2021/11/13 00:11:59;;;;;;;5.33;2.60;;;;;;;3.73;79.67;101665.88;5034285;28;20035;-65
2021/11/13 00:14:27;;;;;;;3.57;3.10;;;;;;;3.79;79.98;101673.41;5034459;28;20048;-65
2021/11/13 00:16:55;;;;;;;3.47;2.77;;;;;;;3.84;80.01;101673.97;5034451;28;20119;-65
2021/11/13 00:19:20;;;;;;;3.80;2.60;;;;;;;3.81;79.86;101682.06;5016763;28;20682;-65
2021/11/13 00:21:46;;;;;;;3.90;2.90;;;;;;;3.84;80.23;101676.59;5034260;28;20276;-67
2021/11/13 00:24:12;;;;;;;4.27;2.77;;;;;;;3.82;79.22;101677.63;5034236;28;20479;-65
2021/11/13 00:26:38;;;;;;;6.00;2.30;;;;;;;3.78;79.31;101682.25;5034004;28;20209;-63
2021/11/13 00:29:05;;;;;;;3.90;2.20;;;;;;;3.72;80.12;101690.53;5033867;28;20288;-67
2021/11/13 00:31:31;;;;;;;6.57;2.80;;;;;;;3.56;79.84;101682.75;5033906;28;20268;-69
2021/11/13 00:33:57;;;;;;;2.40;2.20;;;;;;;3.58;80.27;101696.66;5033686;28;20276;-67
2021/11/13 00:36:24;;;;;;;3.93;2.57;;;;;;;3.52;80.65;101689.16;5015880;28;20338;-65
2021/11/13 00:38:49;;;;;;;5.40;2.93;;;;;;;3.35;79.99;101674.38;5033476;28;20152;-67
2021/11/13 00:41:15;;;;;;;3.97;2.90;;;;;;;3.54;79.99;101702.22;5032519;28;20284;-66
2021/11/13 00:43:40;;;;;;;3.23;2.77;;;;;;;3.58;79.21;101708.97;5033566;28;20106;-66
2021/11/13 00:46:06;;;;;;;5.87;2.70;;;;;;;3.64;79.27;101717.34;5033551;28;20091;-65
2021/11/13 00:48:31;;;;;;;7.47;2.80;;;;;;;3.69;79.08;101711.78;5033366;28;20041;-67
2021/11/13 00:50:57;;;;;;;8.43;3.50;;;;;;;3.67;79.25;101703.13;5033404;28;20057;-65
2021/11/13 00:53:23;;;;;;;2.97;2.60;;;;;;;3.76;79.05;101721.03;5033050;28;20041;-66
2021/11/13 00:55:48;;;;;;;4.37;2.87;;;;;;;3.77;79.30;101728.00;5015744;28;20034;-67
2021/11/13 00:58:14;;;;;;;4.77;3.40;;;;;;;3.76;79.48;101723.66;5033330;28;20041;-67
2021/11/13 01:00:40;;;;;;;9.77;4.47;;;;;;;3.81;79.05;101734.75;5033147;28;20113;-65
2021/11/13 01:03:07;;;;;;;11.47;4.07;;;;;;;3.78;79.72;101732.31;5033016;28;20515;-65
2021/11/13 01:05:33;;;;;;;7.17;3.93;;;;;;;3.76;79.21;101742.09;5033034;28;20041;-68
2021/11/13 01:07:59;;;;;;;4.00;2.90;;;;;;;3.68;79.43;101745.19;5032832;28;20299;-66
2021/11/13 01:10:25;;;;;;;4.97;2.80;;;;;;;3.64;79.57;101756.88;5033193;28;20475;-65
2021/11/13 01:12:50;;;;;;;4.93;3.00;;;;;;;3.64;79.90;101758.66;5033225;28;20060;-67
2021/11/13 01:15:18;;;;;;;4.07;2.60;;;;;;;3.61;80.15;101756.22;5033320;28;20116;-63
2021/11/13 01:17:44;;;;;;;5.17;2.40;;;;;;;3.66;79.32;101756.78;5032742;28;20551;-65
2021/11/13 01:20:12;;;;;;;2.53;2.30;;;;;;;3.63;79.31;101762.22;5032763;28;20268;-65
2021/11/13 01:22:39;;;;;;;3.20;2.30;;;;;;;3.62;79.29;101766.66;5033126;28;20225;-67
2021/11/13 01:25:06;;;;;;;3.57;2.30;;;;;;;3.65;79.87;101768.25;5032762;28;20045;-65
2021/11/13 01:27:32;;;;;;;2.40;2.20;;;;;;;3.67;79.63;101763.72;5032862;28;20322;-64
2021/11/13 01:29:57;;;;;;;2.63;1.93;;;;;;;3.68;79.25;101768.06;5032647;28;20268;-66
2021/11/13 01:32:23;;;;;;;2.67;2.07;;;;;;;3.62;78.96;101777.19;5032621;28;20044;-66
2021/11/13 01:34:49;;;;;;;2.47;2.27;;;;;;;3.64;79.50;101777.09;5014809;28;20083;-66
2021/11/13 01:37:16;;;;;;;4.13;2.70;;;;;;;3.64;79.56;101783.22;5032435;28;20382;-65
2021/11/13 01:39:42;;;;;;;2.70;2.10;;;;;;;3.67;79.40;101785.66;5014522;28;20338;-65
2021/11/13 01:42:08;;;;;;;2.40;2.20;;;;;;;3.64;78.99;101774.44;5032433;28;20688;-66
2021/11/13 01:44:34;;;;;;;3.77;2.20;;;;;;;3.68;79.06;101783.88;5032517;28;20048;-66
2021/11/13 01:47:00;;;;;;;3.30;2.43;;;;;;;3.68;78.55;101791.75;5032260;28;20037;-66
2021/11/13 01:49:25;;;;;;;2.20;2.00;;;;;;;3.72;78.35;101795.91;5031996;28;20275;-65
2021/11/13 01:51:52;;;;;;;3.47;1.90;;;;;;;3.72;78.75;101809.06;5032194;28;20091;-67
2021/11/13 01:54:44;;;;;;;7.13;2.70;;;;;;;3.70;78.33;101811.81;5032402;28;20149;-66
2021/11/13 01:57:12;;;;;;;3.17;2.33;;;;;;;3.69;78.37;101810.13;5032225;28;20370;-67
2021/11/13 01:59:40;;;;;;;3.03;2.33;;;;;;;3.71;78.62;101813.50;5032432;28;20272;-66
2021/11/13 02:02:08;;;;;;;2.80;2.40;;;;;;;3.68;78.82;101813.69;5031863;28;20037;-66
2021/11/13 02:04:33;;;;;;;3.27;2.30;;;;;;;3.58;78.60;101804.66;5032057;28;20041;-65
2021/11/13 02:07:00;;;;;;;3.87;2.13;;;;;;;3.61;78.91;101816.78;5031974;28;20326;-66
2021/11/13 02:09:26;;;;;;;2.93;2.57;;;;;;;3.57;78.63;101820.56;5032072;28;20037;-66
2021/11/13 02:11:53;;;;;;;3.47;2.53;;;;;;;3.56;78.81;101829.41;5032161;28;20761;-68
2021/11/13 02:14:18;;;;;;;4.53;2.37;;;;;;;3.54;78.67;101816.31;5031798;28;20736;-67
2021/11/13 02:16:44;;;;;;;2.70;2.50;;;;;;;3.55;78.89;101825.06;5031801;28;20814;-66
2021/11/13 02:19:09;;;;;;;4.17;3.07;;;;;;;3.54;78.37;101826.00;5031823;28;20044;-66
2021/11/13 02:21:35;;;;;;;2.93;2.37;;;;;;;3.55;78.87;101835.59;5032060;28;20124;-66
2021/11/13 02:24:01;;;;;;;3.60;1.97;;;;;;;3.47;78.20;101829.91;5031635;28;20037;-65
2021/11/13 02:26:27;;;;;;;2.93;2.47;;;;;;;3.47;79.09;101848.34;5031648;28;20060;-64
2021/11/13 02:28:55;;;;;;;6.50;2.93;;;;;;;3.43;79.21;101859.06;5031626;28;20779;-65
2021/11/13 02:31:30;;;;;;;4.03;2.43;;;;;;;3.41;78.74;101865.38;5031325;28;20038;-68
2021/11/13 02:33:55;;;;;;;3.93;2.40;;;;;;;3.37;78.85;101862.06;5031628;28;20261;-64
2021/11/13 02:36:22;;;;;;;3.60;1.93;;;;;;;3.38;78.61;101868.19;5031963;28;20399;-65
2021/11/13 02:38:53;;;;;;;2.77;2.37;;;;;;;3.40;78.94;101868.94;5033088;28;20041;-67
2021/11/13 02:41:21;;;;;;;2.73;2.20;;;;;;;3.42;78.26;101875.81;5032096;28;20280;-68
2021/11/13 02:43:48;;;;;;;5.03;2.85;;;;;;;3.42;78.61;101867.06;5031500;28;20334;-64
2021/11/13 02:46:14;;;;;;;2.67;2.17;;;;;;;3.42;78.29;101870.53;5031400;28;20107;-67
2021/11/13 02:48:42;;;;;;;6.80;1.90;;;;;;;3.45;78.13;101873.94;5031495;28;20342;-65
2021/11/13 02:51:09;;;;;;;5.37;2.20;;;;;;;3.37;78.02;101866.50;5031392;28;20318;-65
2021/11/13 02:53:36;;;;;;;2.87;2.07;;;;;;;3.39;77.37;101881.25;5031665;28;20735;-66
2021/11/13 02:56:06;;;;;;;2.50;2.20;;;;;;;3.34;77.51;101883.31;5031403;28;20276;-67
2021/11/13 02:58:35;;;;;;;3.00;2.03;;;;;;;3.33;78.47;101884.25;5031544;28;20275;-67
2021/11/13 03:01:05;;;;;;;3.42;1.98;;;;;;;3.37;78.33;101893.66;5031561;28;20265;-67
2021/11/13 03:03:31;;;;;;;3.17;2.03;;;;;;;3.40;77.66;101898.75;5032006;28;20073;-66
2021/11/13 03:05:58;;;;;;;3.17;2.03;;;;;;;3.40;78.51;101890.84;5035511;28;20272;-65
2021/11/13 03:08:29;;;;;;;4.93;1.77;;;;;;;3.46;77.65;101894.91;5035479;28;20615;-65
2021/11/13 03:10:57;;;;;;;2.17;1.70;;;;;;;3.47;77.35;101901.91;5035729;28;20276;-66
2021/11/13 03:13:23;;;;;;;2.83;2.23;;;;;;;3.48;77.64;101906.25;5035341;28;20279;-66
2021/11/13 03:15:51;;;;;;;2.87;1.77;;;;;;;3.43;76.92;101903.84;5035191;28;20269;-66
2021/11/13 03:18:17;;;;;;;4.83;1.80;;;;;;;3.40;77.08;101906.66;5035132;28;20268;-67
2021/11/13 03:20:43;;;;;;;3.60;1.73;;;;;;;3.39;77.80;101909.38;5035288;28;20260;-67
2021/11/13 03:23:09;;;;;;;3.07;2.13;;;;;;;3.37;77.52;101913.88;5035273;28;20631;-67
2021/11/13 03:25:38;;;;;;;3.70;1.90;;;;;;;3.39;77.93;101917.28;5035443;28;20345;-66
2021/11/13 03:28:10;;;;;;;3.03;1.77;;;;;;;3.37;77.62;101920.00;5035324;28;20288;-68
2021/11/13 03:30:37;;;;;;;4.30;2.20;;;;;;;3.36;77.46;101923.56;5035351;28;20033;-65
2021/11/13 03:33:04;;;;;;;4.27;2.47;;;;;;;3.38;77.49;101926.97;5036508;28;20253;-64
2021/11/13 03:35:30;;;;;;;2.50;2.30;;;;;;;3.40;76.99;101925.09;5035304;28;20320;-64
2021/11/13 03:38:03;;;;;;;3.30;2.27;;;;;;;3.41;76.85;101924.16;5034320;28;20283;-67
2021/11/13 03:40:29;;;;;;;4.63;3.00;;;;;;;3.40;76.43;101924.25;5034797;28;20268;-65
2021/11/13 03:42:55;;;;;;;4.23;2.60;;;;;;;3.36;77.06;101928.00;5034591;28;20314;-66
2021/11/13 03:45:21;;;;;;;7.77;2.70;;;;;;;3.40;76.37;101938.25;5034550;28;20677;-66
2021/11/13 03:47:47;;;;;;;5.40;2.53;;;;;;;3.34;76.83;101945.66;5034469;28;20407;-66
2021/11/13 03:50:12;;;;;;;6.00;2.50;;;;;;;3.34;77.16;101948.28;5034474;28;20129;-66
2021/11/13 03:52:38;;;;;;;4.17;2.23;;;;;;;3.31;76.74;101951.94;5034657;28;20068;-64
2021/11/13 03:55:04;;;;;;;2.87;2.17;;;;;;;3.34;76.36;101962.31;5034737;28;20041;-65
2021/11/13 03:57:30;;;;;;;6.90;2.50;;;;;;;3.35;76.08;101963.16;5034657;28;20095;-66
2021/11/13 03:59:55;;;;;;;6.03;2.57;;;;;;;3.30;76.99;101949.41;5034395;28;20264;-66
2021/11/13 04:02:21;;;;;;;5.60;2.87;;;;;;;3.37;76.36;101956.88;5034298;28;20099;-66
2021/11/13 04:04:47;;;;;;;5.43;2.70;;;;;;;3.40;76.64;101955.84;5034102;28;20040;-67
2021/11/13 04:07:13;;;;;;;4.73;2.27;;;;;;;3.42;76.37;101965.34;5034050;28;20295;-66
2021/11/13 04:09:41;;;;;;;2.90;2.23;;;;;;;3.39;76.19;101965.53;5034259;28;20571;-70
2021/11/13 04:12:10;;;;;;;2.53;2.08;;;;;;;3.38;76.02;101974.38;5016122;28;20095;-67
2021/11/13 04:14:36;;;;;;;4.90;2.53;;;;;;;3.39;76.83;101976.06;5034156;28;20041;-65
2021/11/13 04:17:03;;;;;;;4.20;2.23;;;;;;;3.37;76.01;101969.19;5034031;28;20447;-66
2021/11/13 04:19:29;;;;;;;2.27;1.70;;;;;;;3.28;76.29;101977.63;5033750;28;20257;-66
2021/11/13 04:21:55;;;;;;;2.10;1.73;;;;;;;3.23;76.93;101974.41;5034107;28;20264;-66
2021/11/13 04:24:22;;;;;;;5.13;1.27;;;;;;;3.19;76.95;101975.50;5033922;28;20037;-67
2021/11/13 04:26:48;;;;;;;4.50;1.83;;;;;;;3.15;77.02;101977.44;5033900;28;20272;-65
2021/11/13 04:29:13;;;;;;;2.03;1.83;;;;;;;3.08;77.53;101983.97;5033777;28;20307;-64
2021/11/13 04:31:39;;;;;;;5.77;1.63;;;;;;;3.02;77.59;101981.69;5033762;28;20061;-66
2021/11/13 04:34:18;;;;;;;2.23;1.83;;;;;;;2.98;77.66;101985.41;5015892;28;20080;-69
2021/11/13 04:36:46;;;;;;;1.85;1.63;;;;;;;2.91;77.46;101986.69;5016795;28;20501;-67
2021/11/13 04:39:12;;;;;;;5.95;2.88;;;;;;;2.74;78.08;101970.03;5033748;28;20052;-67
2021/11/13 04:41:40;;;;;;;4.80;2.00;;;;;;;2.84;78.70;101987.94;5033561;28;20038;-65
2021/11/13 04:44:05;;;;;;;2.40;2.20;;;;;;;2.81;78.21;101991.59;5033444;28;20287;-64
2021/11/13 04:46:31;;;;;;;3.17;2.07;;;;;;;2.80;78.58;101993.38;5015625;28;20881;-66
2021/11/13 04:48:56;;;;;;;2.83;2.60;;;;;;;2.73;78.70;101985.91;5033336;28;20041;-64
2021/11/13 04:51:22;;;;;;;4.30;2.00;;;;;;;2.69;78.55;101992.25;5033711;28;20124;-65
2021/11/13 04:53:49;;;;;;;5.63;2.37;;;;;;;2.65;79.16;101994.22;5033897;28;20034;-66
2021/11/13 04:56:14;;;;;;;3.20;2.60;;;;;;;2.61;79.01;102003.19;5033486;28;20407;-66
2021/11/13 04:58:43;;;;;;;5.43;2.30;;;;;;;2.56;79.00;102005.19;5033018;28;20272;-66
2021/11/13 05:01:08;;;;;;;3.27;2.20;;;;;;;2.43;79.85;101993.63;5033074;28;20045;-66
2021/11/13 05:03:34;;;;;;;6.50;3.00;;;;;;;2.46;79.89;102017.13;5033399;28;20559;-66
2021/11/13 05:05:59;;;;;;;3.70;2.57;;;;;;;2.43;79.91;102019.94;5033292;28;20121;-65
2021/11/13 05:08:25;;;;;;;7.17;2.93;;;;;;;2.44;80.18;102021.63;5032990;28;20137;-65
2021/11/13 05:10:51;;;;;;;10.57;2.60;;;;;;;2.50;79.80;102031.81;5032930;28;20040;-65
2021/11/13 05:13:18;;;;;;;5.50;2.93;;;;;;;2.54;79.84;102028.09;5033012;28;20116;-66
2021/11/13 05:15:44;;;;;;;5.97;3.37;;;;;;;2.55;79.55;102032.41;5032928;28;20059;-66
2021/11/13 05:18:10;;;;;;;7.90;2.87;;;;;;;2.59;79.42;102031.31;5033099;28;20333;-66
2021/11/13 05:20:37;;;;;;;8.20;3.50;;;;;;;2.56;79.36;102031.50;5031378;28;20260;-66
2021/11/13 05:23:03;;;;;;;2.70;2.40;;;;;;;2.54;79.43;102043.88;5032800;28;20617;-66
2021/11/13 05:25:29;;;;;;;3.23;2.30;;;;;;;2.54;79.30;102038.59;5032708;28;20274;-67
2021/11/13 05:27:55;;;;;;;3.77;3.10;;;;;;;2.52;79.89;102040.47;5031908;28;20289;-66
2021/11/13 05:30:23;;;;;;;4.43;2.50;;;;;;;2.42;79.59;102044.50;5032560;28;20468;-63
2021/11/13 05:32:50;;;;;;;3.80;2.87;;;;;;;2.38;79.63;102042.97;5032672;28;20056;-66
2021/11/13 05:35:18;;;;;;;8.17;2.40;;;;;;;2.36;79.57;102040.44;5032381;28;20329;-66
2021/11/13 05:37:45;;;;;;;3.00;2.35;;;;;;;2.30;79.83;102039.88;5032724;28;20283;-66
2021/11/13 05:40:12;;;;;;;9.57;3.13;;;;;;;2.33;80.35;102060.78;5032366;28;20630;-67
2021/11/13 05:42:38;;;;;;;11.93;2.70;;;;;;;2.31;80.52;102052.94;5013192;28;20268;-71
2021/11/13 05:45:06;;;;;;;7.67;2.80;;;;;;;2.29;80.13;102060.06;5032468;28;20284;-72
2021/11/13 05:47:32;;;;;;;4.50;3.10;;;;;;;2.29;80.43;102060.06;5032174;28;20671;-71
2021/11/13 05:49:58;;;;;;;7.40;2.97;;;;;;;2.30;80.53;102061.75;5015965;28;20276;-65
2021/11/13 05:52:24;;;;;;;4.43;2.63;;;;;;;2.17;80.51;102045.75;5014448;28;20682;-67
2021/11/13 05:54:49;;;;;;;5.80;2.87;;;;;;;2.24;80.02;102056.81;5032091;28;20480;-68
2021/11/13 05:57:15;;;;;;;5.80;2.60;;;;;;;2.20;80.81;102055.25;5032189;28;20041;-71
2021/11/13 05:59:48;;;;;;;7.87;3.87;;;;;;;2.18;80.61;102060.59;5031773;28;20133;-74
2021/11/13 06:02:14;;;;;;;6.30;3.10;;;;;;;2.13;80.90;102054.72;5031865;28;20786;-70
2021/11/13 06:04:39;;;;;;;7.57;6.83;;;;;;;2.06;81.32;102061.22;5031380;28;20307;-70
2021/11/13 06:07:05;;;;;;;25.23;10.30;;;;;;;2.07;81.64;102065.56;5031458;28;20120;-70
2021/11/13 06:09:30;;;;;;;8.83;4.27;;;;;;;2.08;81.66;102069.03;5030195;28;20412;-67
2021/11/13 06:11:57;;;;;;;6.07;3.43;;;;;;;2.09;81.90;102074.22;5030845;28;20480;-71
2021/11/13 06:14:22;;;;;;;10.03;3.70;;;;;;;2.00;81.41;102064.13;5031607;28;20034;-70
2021/11/13 06:16:48;;;;;;;9.57;4.30;;;;;;;2.08;81.60;102076.91;5014209;28;20268;-70
2021/11/13 06:19:13;;;;;;;7.33;4.30;;;;;;;2.12;81.42;102074.06;5031458;28;20044;-68
2021/11/13 06:21:39;;;;;;;6.30;3.30;;;;;;;2.13;81.59;102083.63;5031571;28;20495;-66
2021/11/13 06:24:07;;;;;;;8.83;4.40;;;;;;;2.14;81.62;102093.22;5031592;28;20037;-67
2021/11/13 06:26:33;;;;;;;12.25;5.55;;;;;;;2.16;81.32;102098.41;5013954;28;20447;-67
2021/11/13 06:28:59;;;;;;;11.87;4.53;;;;;;;2.18;81.20;102100.03;5031160;28;20554;-71
2021/11/13 06:31:24;;;;;;;11.67;6.00;;;;;;;2.14;81.92;102090.59;5031898;28;20077;-67
2021/11/13 06:33:49;;;;;;;11.13;5.70;;;;;;;2.13;81.54;102102.03;5031626;28;20482;-71
2021/11/13 06:36:15;;;;;;;12.70;6.20;;;;;;;2.12;81.92;102100.34;5031139;28;20084;-67
2021/11/13 06:38:41;;;;;;;10.53;5.30;;;;;;;2.11;81.59;102096.00;5014213;28;20047;-68
2021/11/13 06:41:06;;;;;;;14.30;5.70;;;;;;;2.17;82.17;102108.00;5035739;28;20500;-69
2021/11/13 06:43:32;;;;;;;13.63;5.90;;;;;;;2.17;81.93;102108.00;5035781;28;20033;-70
2021/11/13 06:45:58;;;;;;;11.43;5.57;;;;;;;2.14;82.11;102102.88;5017514;28;20029;-69
2021/11/13 06:48:24;;;;;;;13.57;7.17;;;;;;;2.14;82.21;102111.63;5035123;28;20041;-70
2021/11/13 06:50:52;;;;;;;16.57;5.87;;;;;;;2.15;81.65;102109.84;5035637;28;20037;-72
2021/11/13 06:53:18;;;;;;;12.47;6.40;;;;;;;2.15;81.71;102115.94;5035253;28;20752;-74
2021/11/13 06:55:43;;;;;;;7.90;4.83;;;;;;;2.26;81.60;102119.81;5001434;28;20355;-72
2021/11/13 06:58:10;;;;;;;12.97;4.90;;;;;;;2.22;81.60;102115.63;5035475;28;20445;-67
2021/11/13 07:00:37;;;;;;;14.57;5.37;;;;;;;2.31;81.82;102126.53;5035474;28;20463;-68
2021/11/13 07:03:03;;;;;;;5.93;4.63;;;;;;;2.37;81.52;102128.03;5035297;28;20268;-72
2021/11/13 07:05:29;;;;;;;13.37;8.97;;;;;;;2.42;81.08;102124.25;5035621;28;20695;-72
2021/11/13 07:07:56;;;;;;;11.30;6.53;;;;;;;2.48;81.27;102128.34;5035066;28;20299;-66
2021/11/13 07:10:23;;;;;;;16.23;6.33;;;;;;;2.59;81.14;102128.63;5034687;28;20448;-68
2021/11/13 07:12:48;;;;;;;10.90;5.23;;;;;;;2.77;80.20;102132.97;5035114;28;20329;-69
2021/11/13 07:15:16;;;;;;;10.00;5.53;;;;;;;3.01;79.68;102138.75;5017411;28;20280;-65
2021/11/13 07:17:42;;;;;;;8.30;5.53;;;;;;;3.18;78.85;102145.75;5034823;28;20045;-66
2021/11/13 07:20:08;;;;;;;9.67;4.80;;;;;;;3.34;78.41;102144.00;5017279;28;20773;-68
2021/11/13 07:22:34;;;;;;;9.67;4.07;;;;;;;3.27;77.81;102121.56;5034652;28;20427;-69
2021/11/13 12:26:01;;;;;;;2.93;2.40;;;;;;;3.98;69.50;102422.50;5129842;24;20347;-70
2021/11/13 12:28:31;;;;;;;11.10;3.03;;;;;;;3.99;69.62;102424.22;4778176;30;20309;-69
2021/11/13 12:31:09;;;;;;;7.67;3.00;;;;;;;4.00;69.67;102422.44;4799346;29;20361;-69
2021/11/13 12:33:34;;;;;;;8.17;2.50;;;;;;;3.97;69.55;102415.53;4806634;29;20291;-74
2021/11/13 12:36:16;;;;;;;10.53;3.83;;;;;;;4.08;69.26;102428.19;4804651;29;20268;-69
2021/11/13 12:39:00;;;;;;;7.63;3.10;;;;;;;3.99;69.34;102412.81;4797394;29;20055;-68
2021/11/13 12:41:42;;;;;;;3.40;2.70;;;;;;;3.94;69.00;102418.34;4794181;29;20649;-71
2021/11/13 12:44:25;;;;;;;4.07;2.10;;;;;;;3.90;69.00;102423.84;4772721;30;20678;-69
2021/11/13 12:46:59;;;;;;;4.13;2.30;;;;;;;3.93;69.08;102419.25;4772437;30;20277;-70
2021/11/13 12:49:28;;;;;;;11.00;5.17;;;;;;;3.91;68.34;102431.69;4788893;30;20332;-69
2021/11/13 12:51:54;;;;;;;25.80;9.25;;;;;;;3.82;68.20;102416.34;4788428;30;20283;-69
2021/11/13 12:54:23;;;;;;;12.97;5.60;;;;;;;3.90;68.66;102422.06;4788348;29;20051;-68
2021/11/13 12:56:57;;;;;;;9.20;3.28;;;;;;;3.84;69.12;102425.03;4788662;29;20112;-69
2021/11/13 12:59:27;;;;;;;3.03;2.47;;;;;;;3.92;69.11;102429.88;4788061;30;20046;-71
2021/11/13 13:02:00;;;;;;;13.02;3.60;;;;;;;3.75;68.61;102401.75;4788620;30;20553;-74
2021/11/13 13:04:33;;;;;;;7.97;3.20;;;;;;;3.93;68.73;102424.53;4788449;30;20043;-72
2021/11/13 13:07:02;;;;;;;5.37;2.87;;;;;;;3.90;68.62;102435.25;4788344;30;20300;-72
2021/11/13 13:09:29;;;;;;;5.77;3.10;;;;;;;3.83;68.73;102431.22;4788413;30;20657;-69
2021/11/13 13:11:58;;;;;;;6.73;3.63;;;;;;;3.89;68.91;102444.09;4788424;30;20283;-71
2021/11/13 13:14:33;;;;;;;4.85;2.92;;;;;;;3.79;69.49;102434.09;4788251;30;20283;-72
2021/11/13 13:17:02;;;;;;;9.23;3.80;;;;;;;3.61;68.64;102412.16;4788019;30;20043;-69
2021/11/13 13:19:38;;;;;;;5.72;2.90;;;;;;;3.75;68.72;102436.00;4787970;29;20265;-70
2021/11/13 13:22:09;;;;;;;8.50;3.87;;;;;;;3.85;69.00;102447.81;4787852;30;20388;-71
2021/11/13 13:24:36;;;;;;;6.03;3.43;;;;;;;3.81;68.83;102446.25;4787992;30;20316;-72
2021/11/13 13:27:09;;;;;;;10.83;2.80;;;;;;;3.82;69.16;102442.69;4787610;29;20812;-67
2021/11/13 13:30:08;;;;;;;6.70;3.20;;;;;;;3.92;67.99;102453.63;4788238;30;20386;-69
2021/11/13 13:32:34;;;;;;;14.53;4.23;;;;;;;3.91;67.85;102460.66;4787981;30;20788;-70
2021/11/13 13:35:09;;;;;;;38.47;19.20;;;;;;;3.96;68.04;102463.06;4792199;29;20292;-68
2021/11/13 13:37:47;;;;;;;87.93;41.37;;;;;;;3.95;68.30;102464.00;4787616;30;20054;-69
2021/11/13 13:40:44;;;;;;;33.60;14.50;;;;;;;3.82;68.02;102447.97;4788220;30;20269;-67
2021/11/13 13:43:18;;;;;;;15.97;6.83;;;;;;;3.90;67.44;102461.59;4786394;30;20043;-66
2021/11/13 13:46:01;;;;;;;3.77;2.50;;;;;;;3.77;66.94;102454.41;4787473;30;20273;-67
2021/11/13 13:48:30;;;;;;;2.53;1.83;;;;;;;3.73;67.64;102458.94;4787050;30;20296;-67
2021/11/13 13:50:59;;;;;;;6.10;2.17;;;;;;;3.75;67.84;102457.09;4787644;29;20777;-74
2021/11/13 13:53:26;;;;;;;8.97;2.30;;;;;;;3.83;67.71;102464.63;4788055;30;20830;-72
2021/11/13 13:55:52;;;;;;;4.93;2.13;;;;;;;3.83;67.31;102469.91;4787562;30;20276;-73
2021/11/13 13:58:17;;;;;;;7.90;2.17;;;;;;;3.72;67.31;102457.25;4786927;29;20043;-73
2021/11/13 14:00:47;;;;;;;5.77;4.07;;;;;;;3.77;67.16;102472.84;4787588;30;20162;-74
2021/11/13 14:03:24;;;;;;;25.60;11.97;;;;;;;3.78;68.22;102472.78;4786914;30;20042;-74
2021/11/13 14:05:50;;;;;;;8.20;3.93;;;;;;;3.69;67.62;102463.53;4787724;29;20272;-73
2021/11/13 14:08:16;;;;;;;11.53;3.23;;;;;;;3.69;67.47;102478.47;4786312;30;20816;-75
2021/11/13 14:10:52;;;;;;;7.20;3.20;;;;;;;3.65;67.73;102484.84;4787636;29;20203;-71
2021/11/13 14:13:21;;;;;;;7.33;2.63;;;;;;;3.62;67.82;102482.38;4786345;30;20503;-73
2021/11/13 14:15:55;;;;;;;3.90;2.55;;;;;;;3.64;67.89;102481.34;4788091;30;20285;-74
2021/11/13 14:18:29;;;;;;;4.70;1.77;;;;;;;3.60;67.65;102471.91;4771869;30;20093;-73
2021/11/13 14:20:55;;;;;;;11.50;2.20;;;;;;;3.65;67.42;102492.75;4786321;30;20281;-75
2021/11/13 14:23:23;;;;;;;6.03;2.20;;;;;;;3.61;67.46;102486.78;4787584;29;20288;-74
2021/11/13 14:25:54;;;;;;;3.40;2.27;;;;;;;3.53;66.97;102472.28;4787591;29;20526;-73
2021/11/13 14:28:26;;;;;;;6.30;2.80;;;;;;;3.68;68.21;102493.44;4787477;29;20347;-75
2021/11/13 14:30:55;;;;;;;10.33;5.00;;;;;;;3.70;68.07;102496.84;4786137;30;20346;-75
2021/11/13 14:33:21;;;;;;;1.87;1.67;;;;;;;3.65;67.25;102492.75;4787440;29;20281;-75
2021/11/13 14:35:47;;;;;;;6.67;2.40;;;;;;;3.65;66.85;102487.47;4787210;29;20273;-76
2021/11/13 14:38:14;;;;;;;4.87;2.90;;;;;;;3.62;67.20;102493.75;4787458;29;20395;-74
2021/11/13 14:40:59;;;;;;;4.23;2.10;;;;;;;3.69;67.15;102510.09;4787994;30;20179;-74
2021/11/13 14:43:32;;;;;;;13.77;2.77;;;;;;;3.73;68.07;102509.03;4788016;30;20314;-73
2021/11/13 14:46:09;;;;;;;8.23;3.03;;;;;;;3.72;67.62;102509.94;4788128;29;20651;-76
2021/11/13 14:48:34;;;;;;;4.60;2.50;;;;;;;3.69;67.47;102505.69;4788082;30;20821;-75
2021/11/13 14:51:14;;;;;;;2.83;1.97;;;;;;;3.45;67.46;102469.16;4787343;29;20277;-74
2021/11/13 14:53:40;;;;;;;12.93;3.47;;;;;;;3.50;67.89;102493.50;4786636;30;20043;-75
2021/11/13 14:56:17;;;;;;;5.23;1.87;;;;;;;3.59;68.54;102498.31;4786591;30;20291;-76
2021/11/13 14:59:07;;;;;;;3.43;2.83;;;;;;;3.59;67.62;102491.28;4771405;29;20043;-75
2021/11/13 15:01:52;;;;;;;4.33;2.20;;;;;;;3.64;66.72;102506.84;4776688;30;20884;-77
2021/11/13 15:04:41;;;;;;;5.03;2.70;;;;;;;3.68;67.77;102514.53;4792323;30;20768;-78
2021/11/13 15:07:16;;;;;;;6.30;2.00;;;;;;;3.52;67.64;102491.66;4791229;30;20842;-75
2021/11/13 15:10:19;;;;;;;7.83;3.53;;;;;;;3.39;67.33;102465.91;4791722;30;20657;-75
2021/11/13 15:12:45;;;;;;;6.87;2.70;;;;;;;3.26;67.38;102456.91;4790635;29;20281;-73
2021/11/13 15:15:35;;;;;;;4.37;1.73;;;;;;;3.45;66.94;102490.22;4792306;29;20701;-75
2021/11/13 15:18:03;;;;;;;7.43;4.20;;;;;;;3.45;67.80;102492.84;4794204;29;20043;-75
2021/11/13 15:20:29;;;;;;;38.42;14.32;;;;;;;3.56;67.28;102507.22;4808068;30;20261;-74
2021/11/13 15:22:58;;;;;;;136.63;51.80;;;;;;;3.59;67.02;102519.41;4792192;29;20389;-74
2021/11/13 15:25:32;;;;;;;;;;;;;;;3.62;66.98;102529.78;4790006;29;20047;-75
2021/11/13 15:28:15;;;;;;;26.87;11.33;;;;;;;3.52;66.83;102533.81;4790398;29;19925;-74
2021/11/13 15:30:46;;;;;;;316.67;113.60;;;;;;;3.45;67.32;102537.63;4789371;30;20313;-76
2021/11/13 15:33:22;;;;;;;53.57;18.40;;;;;;;3.32;66.95;102529.47;4789914;30;20285;-75
2021/11/13 15:35:56;;;;;;;142.23;54.83;;;;;;;3.33;67.42;102539.09;4788809;30;20291;-75
2021/11/13 15:38:31;;;;;;;109.77;42.03;;;;;;;3.37;67.55;102546.75;4791108;29;20343;-75
2021/11/13 15:40:59;;;;;;;49.27;20.53;;;;;;;3.37;67.90;102535.38;4790711;30;20285;-74
2021/11/13 15:43:27;;;;;;;49.13;22.38;;;;;;;3.42;68.24;102544.75;4790276;29;20343;-74
2021/11/13 15:46:04;;;;;;;26.48;11.05;;;;;;;3.37;67.61;102551.19;4790550;29;20411;-73
2021/11/13 15:49:01;;;;;;;;;;;;;;;;;;;;;
2021/11/13 15:51:43;;;;;;;55.20;23.38;;;;;;;3.38;68.18;102552.88;4776667;30;20814;-73
2021/11/13 15:54:14;;;;;;;24.87;14.43;;;;;;;3.32;68.26;102555.81;4789259;30;20043;-71
2021/11/13 15:57:08;;;;;;;4.00;2.70;;;;;;;3.32;68.09;102551.41;4790127;29;20277;-76
2021/11/13 15:59:37;;;;;;;6.07;2.50;;;;;;;3.36;68.78;102549.47;4766477;30;20285;-73
2021/11/13 16:02:07;;;;;;;3.50;1.60;;;;;;;3.02;68.45;102492.28;4792825;29;20649;-76
2021/11/13 16:04:39;;;;;;;2.73;1.67;;;;;;;3.45;68.21;102558.72;4790006;29;20458;-72
2021/11/13 16:07:05;;;;;;;4.70;2.70;;;;;;;3.40;68.48;102557.16;4788434;30;20288;-73
2021/11/13 16:09:36;;;;;;;2.25;2.05;;;;;;;3.17;68.46;102515.25;4787819;29;20800;-73
2021/11/13 16:12:04;;;;;;;3.63;2.00;;;;;;;3.51;68.30;102572.47;4789228;29;20048;-73
2021/11/13 16:14:29;;;;;;;2.92;2.30;;;;;;;3.48;68.87;102574.41;4789362;29;20047;-73
2021/11/13 16:16:58;;;;;;;74.43;34.27;;;;;;;3.46;68.74;102570.94;4788217;29;20050;-74
2021/11/13 16:19:24;;;;;;;85.65;41.72;;;;;;;3.45;68.47;102558.72;4788383;29;20112;-73
2021/11/13 16:21:53;;;;;;;27.50;13.57;;;;;;;3.45;68.44;102561.34;4790570;30;20535;-76
2021/11/13 16:24:19;;;;;;;8.53;4.53;;;;;;;3.46;68.72;102565.69;4794506;29;20045;-76
2021/11/13 16:26:48;;;;;;;33.47;16.80;;;;;;;3.29;69.03;102538.38;4789709;30;20296;-74
2021/11/13 16:29:13;;;;;;;148.03;69.47;;;;;;;3.46;69.32;102565.69;4790074;30;20511;-76
2021/11/13 16:31:44;;;;;;;171.87;77.90;;;;;;;3.48;69.29;102551.53;4789310;29;20346;-74
2021/11/13 16:34:39;;;;;;;66.40;30.83;;;;;;;3.57;69.46;102568.69;4797633;29;20057;-72
2021/11/13 16:37:05;;;;;;;47.35;23.88;;;;;;;3.45;69.17;102548.16;4794872;29;20665;-72
2021/11/13 16:39:31;;;;;;;27.77;14.60;;;;;;;3.50;68.95;102567.28;4790193;29;20484;-73
2021/11/13 16:41:59;;;;;;;9.73;5.23;;;;;;;3.54;68.26;102574.09;4776414;29;20078;-73